Time;durP1;ratioP1;P1;durP2;ratioP2;P2;SDS_P1;SDS_P2;PMS_P1;PMS_P2;Temp;Humidity;BMP_temperature;BMP_pressure;BME280_temperature;BME280_humidity;BME280_pressure;Samples;Min_cycle;Max_cycle;Signal;HPM_P1;HPM_P2
2022/11/23 00:00:36;;;;;;;21.00;14.95;;;;;;;8.64;62.29;101283.95;1578149;89;21153;-58
2022/11/23 00:03:03;;;;;;;19.02;14.63;;;;;;;8.53;62.83;101290.95;1578062;90;21073;-59
2022/11/23 00:05:30;;;;;;;15.68;12.47;;;;;;;8.50;62.94;101295.70;1583310;88;21112;-58
2022/11/23 00:07:57;;;;;;;16.25;12.37;;;;;;;8.48;62.73;101292.69;1550516;89;21054;-59
2022/11/23 00:10:24;;;;;;;16.45;13.50;;;;;;;8.44;62.87;101279.31;1572692;88;21065;-58
2022/11/23 00:12:51;;;;;;;20.72;15.25;;;;;;;8.45;63.10;101284.94;1581169;89;21097;-58
2022/11/23 00:15:18;;;;;;;20.57;15.05;;;;;;;8.43;63.18;101281.49;1585167;89;21591;-58
2022/11/23 00:17:49;;;;;;;18.73;14.58;;;;;;;8.43;63.19;101282.33;1571940;89;21163;-59
2022/11/23 00:20:16;;;;;;;17.65;14.07;;;;;;;8.43;63.10;101285.38;1587048;89;21116;-59
2022/11/23 00:22:44;;;;;;;21.30;15.80;;;;;;;8.41;62.91;101268.51;1591993;89;21156;-59
2022/11/23 00:25:11;;;;;;;21.75;15.98;;;;;;;8.40;62.91;101263.34;1610764;84;21525;-59
2022/11/23 00:27:39;;;;;;;20.82;14.28;;;;;;;8.40;63.02;101260.31;1688547;83;21090;-59
2022/11/23 00:30:08;;;;;;;19.92;14.47;;;;;;;8.40;63.04;101267.23;1693063;83;21078;-59
2022/11/23 00:32:35;;;;;;;20.20;14.93;;;;;;;8.39;62.97;101266.81;1687799;84;21049;-58
2022/11/23 00:35:01;;;;;;;18.42;14.10;;;;;;;8.38;62.81;101267.67;1687016;83;21109;-59
2022/11/23 00:37:29;;;;;;;19.45;15.13;;;;;;;8.37;62.56;101272.41;1664772;84;21545;-58
2022/11/23 00:39:56;;;;;;;18.17;14.53;;;;;;;8.34;62.27;101262.07;1705532;83;21022;-59
2022/11/23 00:42:23;;;;;;;18.92;14.13;;;;;;;8.30;62.28;101259.94;1680372;83;21083;-59
2022/11/23 00:44:50;;;;;;;16.48;12.73;;;;;;;8.29;62.45;101257.33;1681811;84;21069;-59
2022/11/23 00:47:17;;;;;;;15.53;13.05;;;;;;;8.28;62.71;101253.03;1689970;84;21070;-59
2022/11/23 00:49:44;;;;;;;18.60;13.15;;;;;;;8.28;62.85;101258.21;1682074;84;21050;-59
2022/11/23 00:52:10;;;;;;;14.87;12.82;;;;;;;8.26;62.99;101256.06;1690186;83;21611;-58
2022/11/23 00:54:37;;;;;;;15.25;12.47;;;;;;;8.26;63.00;101252.17;1692368;83;21038;-59
2022/11/23 00:57:04;;;;;;;15.03;12.18;;;;;;;8.22;63.05;101252.14;1682457;84;21561;-59
2022/11/23 00:59:31;;;;;;;14.13;12.25;;;;;;;8.21;63.25;101252.16;1726245;82;21011;-59
2022/11/23 01:02:00;;;;;;;15.53;12.88;;;;;;;8.21;63.42;101258.20;1723471;82;21141;-59
2022/11/23 01:04:28;;;;;;;14.05;12.40;;;;;;;8.19;64.20;101257.36;1719487;82;21054;-59
2022/11/23 01:06:58;;;;;;;17.27;13.90;;;;;;;8.21;64.90;101257.34;1719571;82;21581;-58
2022/11/23 01:09:25;;;;;;;14.18;11.78;;;;;;;8.21;65.42;101260.80;1674146;83;21053;-58
2022/11/23 01:11:53;;;;;;;14.07;10.53;;;;;;;8.23;65.64;101247.39;1681868;83;21602;-59
2022/11/23 01:14:22;;;;;;;12.73;11.20;;;;;;;8.27;66.95;101244.80;1700783;84;21495;-58
2022/11/23 01:16:50;;;;;;;10.65;9.33;;;;;;;8.32;67.42;101241.77;1700796;84;21543;-58
2022/11/23 01:19:19;;;;;;;5.05;3.30;;;;;;;8.37;67.80;101247.78;1699468;84;21070;-59
2022/11/23 01:21:47;;;;;;;3.33;1.80;;;;;;;8.42;68.14;101252.09;1694545;84;21527;-59
2022/11/23 01:24:17;;;;;;;2.17;1.37;;;;;;;8.53;68.77;101244.27;1697374;83;21036;-58
2022/11/23 01:26:43;;;;;;;1.50;1.10;;;;;;;8.66;69.42;101248.48;1700364;84;21071;-58
2022/11/23 01:29:12;;;;;;;1.92;0.82;;;;;;;8.81;69.75;101241.48;1696128;84;21047;-58
2022/11/23 01:31:39;;;;;;;0.88;0.70;;;;;;;8.99;70.03;101240.47;1708890;83;21070;-59
2022/11/23 01:34:07;;;;;;;1.15;0.70;;;;;;;9.16;70.08;101233.42;1692424;84;21129;-59
2022/11/23 01:36:34;;;;;;;1.10;0.75;;;;;;;9.31;70.02;101231.14;1711830;84;21046;-58
2022/11/23 01:39:02;;;;;;;2.25;0.85;;;;;;;9.47;69.91;101230.98;1699990;83;20996;-58
2022/11/23 01:41:33;;;;;;;0.93;0.70;;;;;;;9.63;69.80;101231.67;1687465;84;21008;-58
2022/11/23 01:44:30;;;;;;;0.72;0.60;;;;;;;9.77;69.58;101235.85;1719820;82;21073;-58
2022/11/23 01:46:59;;;;;;;1.07;0.80;;;;;;;9.94;69.43;101230.90;1680544;84;21152;-58
2022/11/23 01:49:32;;;;;;;3.27;0.90;;;;;;;10.10;69.47;101227.27;1677683;84;21062;-58
2022/11/23 01:52:03;;;;;;;0.68;0.68;;;;;;;10.23;69.25;101219.74;1615390;87;21102;-58
2022/11/23 01:54:35;;;;;;;2.92;0.60;;;;;;;10.35;69.06;101218.28;1611718;87;21072;-58
2022/11/23 01:57:07;;;;;;;0.70;0.70;;;;;;;10.46;68.81;101215.09;1608702;88;21118;-58
2022/11/23 01:59:34;;;;;;;;;;;;;;;10.54;68.65;101214.55;1559298;91;21612;-58
2022/11/23 02:02:01;;;;;;;2.05;1.00;;;;;;;10.63;68.49;101209.23;1563612;91;20115;-58
2022/11/23 02:04:35;;;;;;;0.60;0.60;;;;;;;10.69;68.37;101198.72;1561927;91;21073;-58
2022/11/23 02:07:02;;;;;;;1.30;0.70;;;;;;;10.77;68.20;101200.77;1551249;91;21096;-58
2022/11/23 02:09:31;;;;;;;2.30;0.98;;;;;;;10.84;68.09;101191.95;1542102;90;21069;-58
2022/11/23 02:11:58;;;;;;;0.65;0.65;;;;;;;10.90;68.20;101189.25;1566028;90;21136;-58
2022/11/23 02:14:26;;;;;;;2.47;0.60;;;;;;;10.96;68.30;101187.88;1562393;91;21176;-58
2022/11/23 02:16:57;;;;;;;1.35;0.65;;;;;;;11.01;68.21;101184.73;1565817;90;21097;-58
2022/11/23 02:19:46;;;;;;;0.45;0.40;;;;;;;11.05;68.04;101178.59;1552254;91;21104;-58
2022/11/23 02:22:22;;;;;;;1.00;0.90;;;;;;;11.11;67.94;101183.70;1497042;95;21162;-58
2022/11/23 02:24:52;;;;;;;1.60;0.62;;;;;;;11.15;67.86;101194.91;1437549;99;21135;-58
2022/11/23 02:27:19;;;;;;;0.53;0.37;;;;;;;11.19;67.73;101193.53;1438313;99;21207;-58
2022/11/23 02:29:46;;;;;;;1.47;0.60;;;;;;;11.23;67.66;101195.20;1428566;99;21588;-58
2022/11/23 02:32:18;;;;;;;1.30;0.70;;;;;;;11.27;67.58;101198.17;1429537;100;21147;-58
2022/11/23 02:34:46;;;;;;;1.90;0.50;;;;;;;11.32;67.37;101197.66;1430434;99;21145;-58
2022/11/23 02:37:13;;;;;;;1.85;0.65;;;;;;;11.36;67.14;101194.11;1453477;97;21116;-58
2022/11/23 02:39:44;;;;;;;1.27;0.70;;;;;;;11.40;66.87;101198.38;1467095;96;21101;-58
2022/11/23 02:42:10;;;;;;;0.93;0.55;;;;;;;11.45;66.71;101206.98;1473605;96;21114;-59
2022/11/23 02:45:11;;;;;;;2.95;0.90;;;;;;;11.51;66.58;101214.26;1475947;97;21109;-58
2022/11/23 02:47:38;;;;;;;0.68;0.60;;;;;;;11.54;66.53;101203.79;1478680;96;21604;-58
2022/11/23 02:50:07;;;;;;;0.72;0.50;;;;;;;11.59;66.35;101192.82;1476022;97;21116;-58
2022/11/23 02:52:35;;;;;;;2.83;0.80;;;;;;;11.61;66.50;101193.65;1476975;97;21097;-58
2022/11/23 02:55:02;;;;;;;7.60;1.22;;;;;;;11.63;66.60;101200.56;1498280;94;21071;-58
2022/11/23 02:57:29;;;;;;;1.40;0.60;;;;;;;11.66;66.58;101194.44;1581217;90;21118;-58
2022/11/23 02:59:56;;;;;;;2.17;0.95;;;;;;;11.69;66.50;101193.09;1611635;87;21069;-58
2022/11/23 03:02:23;;;;;;;1.25;0.85;;;;;;;11.73;66.48;101201.27;1712119;81;21029;-58
2022/11/23 03:04:50;;;;;;;1.95;0.72;;;;;;;11.76;66.53;101206.44;1770828;80;22450;-58
2022/11/23 03:07:19;;;;;;;2.37;0.60;;;;;;;11.79;66.62;101206.36;1760850;81;21078;-58
2022/11/23 03:09:48;;;;;;;1.67;0.78;;;;;;;11.82;66.66;101207.62;1732085;80;21022;-58
2022/11/23 03:12:16;;;;;;;0.65;0.60;;;;;;;11.86;66.69;101202.75;1766647;80;21085;-58
2022/11/23 03:14:43;;;;;;;2.60;0.80;;;;;;;11.87;66.72;101201.88;1764197;80;21058;-58
2022/11/23 03:17:12;;;;;;;1.70;1.02;;;;;;;11.90;66.81;101190.06;1766710;80;21038;-58
2022/11/23 03:19:41;;;;;;;1.40;0.70;;;;;;;11.93;66.86;101188.72;1763792;81;21494;-58
2022/11/23 03:22:09;;;;;;;3.30;1.15;;;;;;;11.97;66.84;101177.33;1761546;80;21573;-58
2022/11/23 03:24:38;;;;;;;1.15;0.80;;;;;;;12.00;66.71;101185.08;1756842;80;21518;-58
2022/11/23 03:27:06;;;;;;;1.50;0.80;;;;;;;12.05;66.78;101178.03;1765896;81;21495;-58
2022/11/23 03:29:34;;;;;;;2.67;0.68;;;;;;;12.10;66.80;101178.77;1758502;80;21073;-58
2022/11/23 03:32:05;;;;;;;2.80;0.70;;;;;;;12.15;66.87;101179.55;1761352;80;21030;-58
2022/11/23 03:34:33;;;;;;;1.07;0.90;;;;;;;12.19;66.89;101173.37;1770473;80;21494;-58
2022/11/23 03:37:00;;;;;;;1.95;1.37;;;;;;;12.23;66.82;101176.33;1754609;80;21046;-58
2022/11/23 03:39:27;;;;;;;4.67;0.72;;;;;;;12.28;66.66;101187.53;1758043;80;21042;-60
2022/11/23 03:42:13;;;;;;;0.98;0.60;;;;;;;12.32;66.64;101179.19;1718846;82;21529;-58
2022/11/23 03:44:40;;;;;;;2.60;0.70;;;;;;;12.35;66.83;101164.30;1737422;81;21047;-58
2022/11/23 03:47:07;;;;;;;2.25;0.75;;;;;;;12.40;66.87;101153.77;1744279;82;21534;-58
2022/11/23 03:49:36;;;;;;;1.12;0.70;;;;;;;12.45;66.77;101141.45;1737596;81;21624;-58
2022/11/23 03:52:04;;;;;;;4.22;0.95;;;;;;;12.51;66.69;101145.26;1730432;82;21545;-58
2022/11/23 03:54:31;;;;;;;1.57;0.70;;;;;;;12.54;66.63;101144.73;1738981;81;21090;-58
2022/11/23 03:57:00;;;;;;;1.17;1.07;;;;;;;12.57;66.56;101148.55;1741137;81;21080;-58
2022/11/23 03:59:27;;;;;;;3.45;0.82;;;;;;;12.61;66.61;101150.67;1729715;81;21083;-58
2022/11/23 04:01:54;;;;;;;2.37;0.90;;;;;;;12.64;66.75;101147.53;1728027;82;21495;-58
2022/11/23 04:04:23;;;;;;;1.40;0.65;;;;;;;12.66;66.66;101143.13;1729143;82;21063;-58
2022/11/23 04:06:54;;;;;;;1.95;0.80;;;;;;;12.69;66.51;101149.59;1715061;83;21010;-58
2022/11/23 04:09:23;;;;;;;1.47;0.80;;;;;;;12.72;66.50;101140.37;1701430;83;21084;-58
2022/11/23 04:11:51;;;;;;;1.57;0.70;;;;;;;12.73;66.53;101138.19;1674196;84;21111;-58
2022/11/23 04:14:19;;;;;;;1.42;0.85;;;;;;;12.75;66.41;101133.78;1673321;84;21098;-58
2022/11/23 04:16:45;;;;;;;2.50;1.12;;;;;;;12.78;66.37;101149.36;1663120;85;21116;-58
2022/11/23 04:19:13;;;;;;;1.72;0.65;;;;;;;12.79;66.44;101152.39;1660012;85;21065;-58
2022/11/23 04:21:40;;;;;;;1.32;0.80;;;;;;;12.84;66.48;101153.56;1660442;84;21561;-58
2022/11/23 04:24:07;;;;;;;0.75;0.62;;;;;;;12.85;66.55;101156.16;1659125;84;21069;-58
2022/11/23 04:26:36;;;;;;;3.67;1.22;;;;;;;12.86;66.50;101159.16;1658637;85;21080;-58
2022/11/23 04:29:03;;;;;;;3.27;0.80;;;;;;;12.87;66.46;101145.66;1654580;84;21077;-58
2022/11/23 04:31:31;;;;;;;1.27;0.72;;;;;;;12.89;66.52;101144.73;1653156;85;21093;-58
2022/11/23 04:34:05;;;;;;;3.30;1.25;;;;;;;12.90;66.63;101146.44;1656090;86;21106;-58
2022/11/23 04:36:33;;;;;;;3.15;1.15;;;;;;;12.93;66.70;101148.13;1656142;86;21057;-58
2022/11/23 04:39:01;;;;;;;3.17;1.12;;;;;;;12.94;66.85;101145.47;1656292;84;21074;-58
2022/11/23 04:41:30;;;;;;;2.67;1.30;;;;;;;12.96;67.07;101141.53;1646571;85;21013;-58
2022/11/23 04:43:57;;;;;;;2.87;0.82;;;;;;;12.96;67.27;101148.89;1655141;84;21607;-58
2022/11/23 04:46:24;;;;;;;1.98;1.10;;;;;;;12.98;67.30;101170.61;1670772;85;21134;-58
2022/11/23 04:48:51;;;;;;;1.10;0.80;;;;;;;12.99;67.41;101164.50;1675247;85;21569;-58
2022/11/23 04:51:18;;;;;;;3.20;1.17;;;;;;;13.03;67.42;101154.39;1686080;83;21522;-58
2022/11/23 04:53:46;;;;;;;4.40;1.00;;;;;;;13.06;67.42;101166.08;1658587;84;21447;-58
2022/11/23 04:56:13;;;;;;;3.33;0.90;;;;;;;13.10;67.45;101163.41;1687300;84;21066;-58
2022/11/23 04:58:41;;;;;;;6.05;1.70;;;;;;;13.08;67.68;101150.83;1683455;84;21548;-58
2022/11/23 05:01:08;;;;;;;2.87;1.35;;;;;;;13.10;67.83;101147.73;1680247;83;21070;-58
2022/11/23 05:03:37;;;;;;;3.52;1.27;;;;;;;13.13;67.91;101146.36;1671456;84;21093;-59
2022/11/23 05:06:08;;;;;;;2.98;0.90;;;;;;;13.15;67.94;101147.17;1676968;84;21046;-58
2022/11/23 05:08:37;;;;;;;;;;;;;;;13.16;67.75;101148.87;1719012;80;21078;-58
2022/11/23 05:11:22;;;;;;;6.72;1.30;;;;;;;13.18;67.36;101142.72;1754955;80;20160;-58
2022/11/23 05:13:50;;;;;;;2.17;0.80;;;;;;;13.21;67.09;101135.25;1784371;80;21062;-58
2022/11/23 05:16:17;;;;;;;4.28;1.00;;;;;;;13.23;66.85;101137.38;1774186;80;21034;-58
2022/11/23 05:18:44;;;;;;;2.85;1.05;;;;;;;13.25;66.71;101134.28;1764303;80;21569;-58
2022/11/23 05:21:11;;;;;;;3.02;0.90;;;;;;;13.27;66.70;101127.25;1769864;80;21545;-58
2022/11/23 05:23:40;;;;;;;1.50;0.88;;;;;;;13.28;66.65;101125.89;1754953;80;21041;-58
2022/11/23 05:26:08;;;;;;;2.85;1.00;;;;;;;13.30;66.67;101129.77;1755178;81;21478;-60
2022/11/23 05:28:36;;;;;;;4.08;1.00;;;;;;;13.32;66.65;101129.27;1757929;80;20995;-58
2022/11/23 05:31:04;;;;;;;3.02;1.05;;;;;;;13.35;66.67;101130.52;1746203;81;21037;-58
2022/11/23 05:33:30;;;;;;;4.15;1.37;;;;;;;13.38;66.73;101127.80;1760446;80;21062;-58
2022/11/23 05:35:57;;;;;;;2.17;1.05;;;;;;;13.39;66.82;101124.30;1751600;80;21046;-58
2022/11/23 05:38:26;;;;;;;4.20;1.15;;;;;;;13.41;66.82;101125.12;1745076;80;21078;-58
2022/11/23 05:40:55;;;;;;;5.42;1.15;;;;;;;13.44;66.78;101128.50;1755060;80;21510;-58
2022/11/23 05:43:21;;;;;;;3.37;1.57;;;;;;;13.46;66.80;101125.39;1755775;80;20990;-58
2022/11/23 05:45:48;;;;;;;3.85;1.12;;;;;;;13.49;66.84;101121.84;1759417;80;21009;-57
2022/11/23 05:48:17;;;;;;;3.75;1.17;;;;;;;13.51;66.80;101123.95;1752619;81;21081;-58
2022/11/23 05:50:46;;;;;;;2.17;1.00;;;;;;;13.54;66.80;101127.81;1703073;83;21111;-58
2022/11/23 05:53:21;;;;;;;4.53;1.22;;;;;;;13.56;66.93;101128.16;1628063;86;21139;-58
2022/11/23 05:55:49;;;;;;;4.87;1.30;;;;;;;13.59;66.98;101121.55;1639956;86;21027;-58
2022/11/23 05:58:18;;;;;;;6.97;1.57;;;;;;;13.61;66.88;101117.57;1636985;86;21110;-58
2022/11/23 06:00:45;;;;;;;4.37;1.55;;;;;;;13.63;66.73;101123.61;1632973;86;21053;-58
2022/11/23 06:03:13;;;;;;;2.98;1.57;;;;;;;13.63;66.75;101115.77;1590495;88;21131;-58
2022/11/23 06:05:40;;;;;;;5.20;1.25;;;;;;;13.65;66.60;101121.81;1636895;86;21620;-58
2022/11/23 06:08:08;;;;;;;4.45;1.65;;;;;;;13.68;66.52;101124.36;1621359;86;21122;-58
2022/11/23 06:10:35;;;;;;;2.92;1.05;;;;;;;13.71;66.41;101126.86;1636202;86;21061;-58
2022/11/23 06:13:03;;;;;;;1.92;1.10;;;;;;;13.73;66.38;101127.67;1623301;87;21045;-58
2022/11/23 06:15:31;;;;;;;3.72;1.32;;;;;;;13.78;66.34;101131.03;1576893;89;21856;-58
2022/11/23 06:18:00;;;;;;;4.45;1.47;;;;;;;13.82;66.26;101122.19;1585940;88;21150;-58
2022/11/23 06:20:30;;;;;;;3.90;1.70;;;;;;;13.86;66.10;101121.20;1565872;89;21070;-58
2022/11/23 06:23:00;;;;;;;5.47;1.50;;;;;;;13.87;66.07;101124.20;1608327;88;21497;-58
2022/11/23 06:25:27;;;;;;;4.55;1.47;;;;;;;13.88;66.02;101124.63;1595325;88;21162;-58
2022/11/23 06:27:58;;;;;;;3.05;1.42;;;;;;;13.92;66.01;101124.94;1543697;91;22567;-58
2022/11/23 06:30:28;;;;;;;6.90;1.63;;;;;;;13.93;66.01;101134.48;1558935;89;21551;-58
2022/11/23 06:32:56;;;;;;;4.12;1.32;;;;;;;13.94;65.89;101129.67;1614556;87;21111;-58
2022/11/23 06:35:24;;;;;;;3.80;1.55;;;;;;;13.95;65.73;101124.00;1612291;87;21569;-58
2022/11/23 06:37:53;;;;;;;4.12;1.60;;;;;;;13.96;65.67;101125.25;1610765;87;21069;-58
2022/11/23 06:40:20;;;;;;;2.20;1.30;;;;;;;13.96;65.71;101122.64;1631982;86;21067;-58
2022/11/23 06:42:48;;;;;;;4.12;1.40;;;;;;;13.97;65.87;101119.14;1620098;87;21081;-58
2022/11/23 06:45:19;;;;;;;3.70;1.60;;;;;;;14.01;65.91;101123.38;1576798;89;21170;-58
2022/11/23 06:47:45;;;;;;;4.83;1.92;;;;;;;14.03;65.95;101118.95;1563889;91;21091;-58
2022/11/23 06:50:14;;;;;;;4.17;1.77;;;;;;;14.04;65.99;101126.33;1569411;89;21115;-58
2022/11/23 06:52:43;;;;;;;4.83;1.85;;;;;;;14.05;66.16;101122.38;1605216;88;21215;-58
2022/11/23 06:55:09;;;;;;;4.47;1.72;;;;;;;14.06;66.22;101117.53;1592955;88;21072;-58
2022/11/23 06:57:37;;;;;;;4.80;1.45;;;;;;;14.09;66.38;101120.52;1669359;85;21058;-58
2022/11/23 07:00:06;;;;;;;4.58;1.57;;;;;;;14.10;66.48;101120.46;1650289;84;21066;-58
2022/11/23 07:02:35;;;;;;;5.27;1.70;;;;;;;14.12;66.47;101118.66;1673347;85;21053;-58
2022/11/23 07:05:02;;;;;;;4.53;1.55;;;;;;;14.15;66.45;101122.50;1699284;80;21533;-58
2022/11/23 07:07:30;;;;;;;6.80;2.15;;;;;;;14.16;66.55;101121.58;1763169;80;21026;-58
2022/11/23 07:09:59;;;;;;;4.08;1.75;;;;;;;14.18;66.68;101121.08;1663158;84;21045;-58
2022/11/23 07:12:28;;;;;;;6.37;2.37;;;;;;;14.22;66.68;101114.84;1674642;84;21653;-58
2022/11/23 07:14:56;;;;;;;7.55;2.02;;;;;;;14.24;66.68;101110.42;1669813;84;21071;-58
2022/11/23 07:17:23;;;;;;;6.55;2.00;;;;;;;14.29;66.55;101111.63;1636960;86;21189;-58
2022/11/23 07:19:51;;;;;;;7.80;2.80;;;;;;;14.33;66.59;101106.25;1673657;84;21118;-58
2022/11/23 07:22:18;;;;;;;5.37;1.98;;;;;;;14.37;66.59;101103.94;1664811;86;21090;-58
2022/11/23 07:24:45;;;;;;;8.35;2.62;;;;;;;14.42;66.47;101090.27;1649879;85;21126;-58
2022/11/23 07:27:11;;;;;;;7.62;2.02;;;;;;;14.46;66.29;101089.27;1650570;85;21518;-58
2022/11/23 07:29:40;;;;;;;5.78;1.70;;;;;;;14.49;66.22;101082.59;1638675;86;21086;-58
2022/11/23 07:32:07;;;;;;;3.30;1.47;;;;;;;14.52;66.15;101085.13;1626938;87;21522;-58
2022/11/23 07:34:36;;;;;;;4.85;1.57;;;;;;;14.55;66.24;101081.09;1621254;87;21609;-57
2022/11/23 07:37:03;;;;;;;6.75;2.00;;;;;;;14.62;66.07;101080.44;1616627;88;21170;-58
2022/11/23 07:39:32;;;;;;;6.25;1.67;;;;;;;14.67;66.05;101077.23;1624105;87;21052;-58
2022/11/23 07:42:00;;;;;;;9.18;2.20;;;;;;;14.72;66.05;101070.05;1618846;87;21093;-58
2022/11/23 07:44:28;;;;;;;7.75;1.65;;;;;;;14.76;65.90;101066.87;1621064;87;21111;-58
2022/11/23 07:46:56;;;;;;;7.22;2.30;;;;;;;14.81;65.78;101075.44;1618262;87;21076;-58
2022/11/23 07:49:22;;;;;;;10.30;3.15;;;;;;;14.84;65.78;101070.95;1619323;88;21519;-58
2022/11/23 07:51:49;;;;;;;8.40;2.10;;;;;;;14.88;65.79;101067.79;1678678;84;21023;-58
2022/11/23 07:54:16;;;;;;;5.30;1.72;;;;;;;14.91;65.84;101059.80;1655194;86;21064;-58
2022/11/23 07:56:44;;;;;;;3.83;1.82;;;;;;;14.94;65.73;101058.41;1648468;86;21046;-58
2022/11/23 07:59:11;;;;;;;5.85;1.98;;;;;;;14.96;65.70;101064.45;1657396;85;21065;-58
2022/11/23 08:01:38;;;;;;;11.75;2.50;;;;;;;14.98;65.67;101063.94;1687899;84;21089;-58
2022/11/23 08:04:05;;;;;;;8.30;2.45;;;;;;;14.99;65.75;101065.63;1684464;84;21534;-58
2022/11/23 08:06:33;;;;;;;5.00;1.65;;;;;;;14.99;65.66;101056.02;1677333;82;21070;-58
2022/11/23 08:09:00;;;;;;;10.93;2.12;;;;;;;15.00;65.63;101052.47;1716820;82;21106;-58
2022/11/23 08:11:27;;;;;;;6.20;1.80;;;;;;;15.01;65.68;101044.16;1733954;82;21538;-59
2022/11/23 08:13:53;;;;;;;8.53;1.60;;;;;;;15.05;65.64;101044.45;1764243;80;21030;-58
2022/11/23 08:16:21;;;;;;;5.42;1.70;;;;;;;15.07;65.59;101044.80;1753229;80;21089;-58
2022/11/23 08:18:49;;;;;;;5.65;1.82;;;;;;;15.10;65.59;101042.09;1773550;80;21072;-58
2022/11/23 08:21:16;;;;;;;6.28;1.95;;;;;;;15.11;65.63;101038.55;1752255;80;21065;-58
2022/11/23 08:23:43;;;;;;;5.30;1.72;;;;;;;15.13;65.65;101033.23;1761410;80;21488;-58
2022/11/23 08:26:10;;;;;;;8.50;2.40;;;;;;;15.14;65.54;101027.09;1751689;80;21073;-59
2022/11/23 08:28:38;;;;;;;6.17;2.12;;;;;;;15.14;65.56;101031.03;1761125;80;21034;-58
2022/11/23 08:31:10;;;;;;;9.10;2.35;;;;;;;15.13;65.55;101034.55;1748943;80;21042;-58
2022/11/23 08:33:38;;;;;;;9.73;2.05;;;;;;;15.15;65.41;101027.48;1761042;80;21017;-58
2022/11/23 08:36:06;;;;;;;6.92;2.12;;;;;;;15.15;65.34;101020.93;1771634;80;21050;-58
2022/11/23 08:38:33;;;;;;;10.60;2.27;;;;;;;15.15;65.60;101018.31;1741925;80;21557;-58
2022/11/23 08:41:00;;;;;;;10.38;2.20;;;;;;;15.15;65.80;101007.83;1761081;80;21538;-57
2022/11/23 08:43:28;;;;;;;7.05;2.15;;;;;;;15.17;65.88;101011.24;1749420;80;21105;-58
2022/11/23 08:45:57;;;;;;;10.25;2.08;;;;;;;15.16;65.91;101004.31;1749349;81;21014;-58
2022/11/23 08:48:24;;;;;;;7.15;2.50;;;;;;;15.17;65.87;101003.37;1700471;83;21008;-57
2022/11/23 08:50:52;;;;;;;4.87;1.85;;;;;;;15.18;65.83;101003.80;1703935;82;21032;-58
2022/11/23 08:53:19;;;;;;;8.95;3.30;;;;;;;15.17;65.83;101004.69;1685763;83;21088;-58
2022/11/23 08:55:46;;;;;;;6.40;1.82;;;;;;;15.17;65.80;101006.00;1699567;82;21127;-58
2022/11/23 08:58:13;;;;;;;7.25;2.08;;;;;;;15.14;65.92;100995.20;1705422;82;21071;-58
2022/11/23 09:00:40;;;;;;;10.15;2.90;;;;;;;15.16;66.00;100996.45;1694504;83;21041;-58
2022/11/23 09:03:06;;;;;;;8.50;1.82;;;;;;;15.14;66.19;100998.27;1665880;83;21076;-58
2022/11/23 09:05:36;;;;;;;9.23;2.15;;;;;;;15.15;66.24;100992.09;1694378;83;21119;-58
2022/11/23 09:08:05;;;;;;;11.73;2.95;;;;;;;15.15;66.31;100989.48;1689276;83;21709;-58
2022/11/23 09:10:33;;;;;;;11.70;3.42;;;;;;;15.17;66.42;100988.97;1700092;82;21582;-57
2022/11/23 09:13:00;;;;;;;7.75;2.40;;;;;;;15.17;66.48;100991.58;1682125;82;21104;-57
2022/11/23 09:15:26;;;;;;;7.40;2.70;;;;;;;15.18;66.59;100985.00;1699809;83;21528;-58
2022/11/23 09:17:53;;;;;;;8.30;2.67;;;;;;;15.18;66.63;100974.52;1685360;83;21151;-58
2022/11/23 09:20:20;;;;;;;11.68;2.75;;;;;;;15.18;66.76;100968.41;1684539;83;21123;-58
2022/11/23 09:22:52;;;;;;;10.32;2.50;;;;;;;15.20;66.83;100967.89;1701197;82;21044;-57
2022/11/23 09:25:19;;;;;;;9.98;2.80;;;;;;;15.22;66.94;100962.14;1676254;83;21083;-58
2022/11/23 09:27:48;;;;;;;7.75;2.65;;;;;;;15.23;67.03;100962.08;1699385;82;21120;-57
2022/11/23 09:30:16;;;;;;;13.53;2.65;;;;;;;15.24;67.08;100964.25;1672947;83;21020;-57
2022/11/23 09:32:43;;;;;;;9.23;2.90;;;;;;;15.23;67.21;100955.97;1705770;83;20992;-58
2022/11/23 09:35:10;;;;;;;11.70;3.98;;;;;;;15.23;67.43;100949.41;1683343;82;21380;-58
2022/11/23 09:37:38;;;;;;;11.93;3.10;;;;;;;15.23;67.60;100953.34;1672105;83;21197;-58
2022/11/23 09:40:08;;;;;;;11.00;2.77;;;;;;;15.25;67.69;100954.17;1712922;83;21556;-58
2022/11/23 09:42:50;;;;;;;9.70;2.90;;;;;;;15.27;67.75;100949.73;1664180;84;21039;-58
2022/11/23 09:45:37;;;;;;;8.78;2.77;;;;;;;15.28;67.89;100944.42;1728297;80;21027;-58
2022/11/23 09:48:30;;;;;;;9.68;2.85;;;;;;;15.28;67.95;100927.83;1756231;80;21058;-58
2022/11/23 09:51:05;;;;;;;10.10;3.05;;;;;;;15.28;68.18;100922.58;1749695;81;21024;-57
2022/11/23 09:53:39;;;;;;;7.60;2.75;;;;;;;15.28;68.40;100910.78;1692743;83;21062;-58
2022/11/23 09:56:11;;;;;;;14.98;3.25;;;;;;;15.28;68.53;100916.89;1700314;83;21081;-58
2022/11/23 09:58:39;;;;;;;10.75;2.95;;;;;;;15.28;68.60;100900.30;1564056;90;21658;-58
2022/11/23 10:01:13;;;;;;;13.03;3.52;;;;;;;15.30;68.60;100902.41;1572651;90;21130;-58
2022/11/23 10:03:42;;;;;;;12.47;3.83;;;;;;;15.30;68.70;100903.71;1564517;91;21159;-58
2022/11/23 10:06:24;;;;;;;16.77;4.92;;;;;;;15.31;68.85;100905.44;1574289;90;21646;-58
2022/11/23 10:09:17;;;;;;;9.13;2.42;;;;;;;15.30;69.09;100905.02;1601703;88;21079;-58
2022/11/23 10:12:16;;;;;;;12.78;3.17;;;;;;;15.30;69.23;100898.02;1610926;88;21768;-58
2022/11/23 10:15:14;;;;;;;12.05;3.33;;;;;;;15.33;69.30;100895.27;1533723;92;21077;-58
2022/11/23 10:18:14;;;;;;;9.28;3.60;;;;;;;15.33;69.46;100893.12;1525043;93;21158;-58
2022/11/23 10:21:20;;;;;;;12.40;3.20;;;;;;;15.37;69.52;100886.36;1532594;92;21142;-58
2022/11/23 10:23:53;;;;;;;12.80;3.70;;;;;;;15.39;69.68;100886.33;1537972;92;21110;-58
2022/11/23 10:26:24;;;;;;;12.65;3.55;;;;;;;15.39;69.91;100881.08;1534840;92;21042;-58
2022/11/23 10:28:51;;;;;;;12.68;4.08;;;;;;;15.39;70.06;100878.46;1457985;97;21123;-59
2022/11/23 10:31:21;;;;;;;11.65;3.25;;;;;;;15.40;70.19;100882.77;1479239;96;21129;-58
2022/11/23 10:34:08;;;;;;;8.38;3.12;;;;;;;15.40;70.33;100881.46;1488829;96;21153;-58
2022/11/23 10:36:36;;;;;;;15.90;4.30;;;;;;;15.40;70.49;100873.59;1391822;100;21317;-58
2022/11/23 10:39:12;;;;;;;12.53;3.83;;;;;;;15.40;70.68;100872.28;1408377;100;21150;-58
2022/11/23 10:41:39;;;;;;;11.97;3.52;;;;;;;15.42;70.80;100870.45;1361493;103;21245;-58
2022/11/23 10:44:23;;;;;;;9.65;3.58;;;;;;;15.41;70.86;100863.52;1343217;106;21689;-58
2022/11/23 10:46:50;;;;;;;22.95;4.95;;;;;;;15.39;70.97;100866.18;1353793;105;21181;-58
2022/11/23 10:49:27;;;;;;;12.78;3.85;;;;;;;15.39;71.14;100848.31;1365383;104;21748;-58
2022/11/23 10:52:04;;;;;;;9.38;3.35;;;;;;;15.39;71.36;100836.51;1337621;105;21655;-58
2022/11/23 10:54:48;;;;;;;10.75;3.70;;;;;;;15.40;71.56;100840.82;1354070;104;21222;-58
2022/11/23 10:57:42;;;;;;;18.65;4.45;;;;;;;15.41;71.69;100843.86;1328342;104;21744;-58
2022/11/23 11:00:16;;;;;;;16.67;4.40;;;;;;;15.43;71.82;100847.30;1309178;108;21227;-58
2022/11/23 11:02:46;;;;;;;16.85;4.17;;;;;;;15.43;71.93;100846.82;1314006;107;21656;-58
2022/11/23 11:05:36;;;;;;;13.50;4.12;;;;;;;15.44;72.08;100842.44;1342171;104;21176;-58
2022/11/23 11:08:19;;;;;;;17.12;4.33;;;;;;;15.42;72.22;100843.81;1343645;105;21184;-58
2022/11/23 11:11:04;;;;;;;16.05;4.42;;;;;;;15.42;72.41;100837.68;1418502;99;21115;-58
2022/11/23 11:13:43;;;;;;;14.68;4.47;;;;;;;15.42;72.59;100828.50;1396368;101;21658;-58
2022/11/23 11:16:23;;;;;;;19.82;5.08;;;;;;;15.42;72.72;100820.64;1391133;99;21163;-58
2022/11/23 11:18:50;;;;;;;15.43;4.17;;;;;;;15.43;72.84;100814.52;1403418;100;21258;-58
2022/11/23 11:21:20;;;;;;;19.50;5.30;;;;;;;15.43;72.94;100809.28;1423732;99;21121;-58
2022/11/23 11:24:04;;;;;;;17.80;5.35;;;;;;;15.47;72.95;100799.06;1392517;101;21135;-58
2022/11/23 11:26:33;;;;;;;18.87;6.30;;;;;;;15.48;72.91;100792.88;1444232;98;21134;-58
2022/11/23 11:29:03;;;;;;;19.35;5.35;;;;;;;15.50;72.88;100794.98;1444943;98;21117;-58
2022/11/23 11:31:51;;;;;;;14.70;5.10;;;;;;;15.52;72.92;100801.02;1442509;98;21640;-59
2022/11/23 11:34:48;;;;;;;15.50;5.17;;;;;;;15.52;72.77;100802.33;1544770;91;21080;-59
2022/11/23 11:37:32;;;;;;;21.68;5.97;;;;;;;15.51;72.85;100799.33;1568349;88;21145;-58